Time;durP1;ratioP1;P1;durP2;ratioP2;P2;SDS_P1;SDS_P2;PMS_P1;PMS_P2;Temp;Humidity;BMP_temperature;BMP_pressure;BME280_temperature;BME280_humidity;BME280_pressure;Samples;Min_cycle;Max_cycle;Signal;HPM_P1;HPM_P2
2023/07/04 00:02:12;;;;;;;3.30;3.00;;;18.90;99.90;;;19.78;72.01;97769.88;10401291;28;20237;-68
2023/07/04 00:07:21;;;;;;;3.47;2.88;;;18.80;99.90;;;19.56;72.34;97778.03;10401065;28;20214;-67
2023/07/04 00:12:24;;;;;;;3.83;2.92;;;18.70;99.90;;;19.43;72.90;97771.75;10405027;28;20225;-67
2023/07/04 00:17:27;;;;;;;2.90;2.60;;;18.50;99.90;;;19.35;73.06;97768.97;10396619;28;20261;-67
2023/07/04 00:22:33;;;;;;;2.63;2.42;;;18.40;99.90;;;19.24;73.57;97767.88;10395874;28;20256;-67
2023/07/04 00:27:36;;;;;;;3.50;2.72;;;18.30;99.90;;;19.10;74.06;97774.47;10405098;28;20606;-67
2023/07/04 00:32:39;;;;;;;3.42;2.70;;;18.20;99.90;;;18.95;74.47;97787.09;10389718;28;20229;-67
2023/07/04 00:37:44;;;;;;;3.30;2.88;;;18.00;99.90;;;18.87;75.04;97776.53;10402196;28;20236;-67
2023/07/04 00:42:49;;;;;;;2.85;2.58;;;17.90;99.90;;;18.78;75.34;97784.09;10394596;28;20225;-67
2023/07/04 00:48:00;;;;;;;2.85;2.65;;;17.80;99.90;;;18.68;75.96;97780.38;10400563;28;20229;-67
2023/07/04 00:53:09;;;;;;;3.13;2.55;;;17.70;99.90;;;18.59;75.85;97793.97;10400716;28;20229;-67
2023/07/04 00:58:13;;;;;;;2.80;2.60;;;17.70;99.90;;;18.62;76.26;97788.88;10390477;28;20218;-67
2023/07/04 01:03:20;;;;;;;3.95;2.70;;;17.70;99.90;;;18.56;76.29;97783.53;10396179;28;20607;-67
2023/07/04 01:08:28;;;;;;;3.13;2.83;;;17.70;99.90;;;18.65;76.65;97788.94;10397273;28;20233;-67
2023/07/04 01:13:35;;;;;;;3.10;2.72;;;17.80;99.90;;;18.63;76.61;97779.41;10398542;28;20725;-67
2023/07/04 01:18:39;;;;;;;2.92;2.38;;;17.80;99.90;;;18.67;76.32;97781.22;10394717;28;20607;-67
2023/07/04 01:23:54;;;;;;;2.95;2.75;;;17.80;99.90;;;18.59;77.54;97778.44;10391149;28;20226;-67
2023/07/04 01:29:00;;;;;;;3.53;2.75;;;17.70;99.90;;;18.72;77.55;97789.13;10396574;28;20233;-67
2023/07/04 01:34:05;;;;;;;4.32;3.00;;;17.90;99.90;;;18.77;77.79;97778.06;10390889;28;20224;-67
2023/07/04 01:39:14;;;;;;;4.07;2.88;;;17.90;99.90;;;18.77;78.21;97772.88;10397320;28;20233;-67
2023/07/04 01:44:24;;;;;;;3.83;2.88;;;17.90;99.90;;;18.82;78.74;97775.56;10388211;28;20356;-67
2023/07/04 01:49:27;;;;;;;3.40;3.10;;;18.00;99.90;;;18.78;78.72;97766.84;10388197;28;20227;-67
2023/07/04 01:54:30;;;;;;;5.60;3.33;;;17.90;99.90;;;18.89;79.36;97773.16;10391911;28;20230;-67
2023/07/04 01:59:35;;;;;;;3.42;3.13;;;18.00;99.90;;;18.93;79.58;97770.63;10397824;28;20313;-67
2023/07/04 02:04:38;;;;;;;4.43;2.90;;;18.00;99.90;;;18.85;80.12;97776.50;10398656;28;20229;-67
2023/07/04 02:09:42;;;;;;;3.78;2.90;;;18.00;99.90;;;18.83;80.36;97779.91;10397909;28;20221;-67
2023/07/04 02:14:47;;;;;;;4.40;3.20;;;17.90;99.90;;;18.89;80.78;97782.66;10387852;28;20237;-67
2023/07/04 02:19:50;;;;;;;4.03;3.25;;;18.00;99.90;;;18.98;80.47;97788.03;10392186;28;20230;-67
2023/07/04 02:24:53;;;;;;;3.35;3.03;;;18.10;99.90;;;18.97;80.79;97787.97;10384951;28;20265;-67
2023/07/04 02:29:57;;;;;;;3.60;3.03;;;18.10;99.90;;;18.98;80.65;97792.34;10399859;28;20225;-67
2023/07/04 02:35:00;;;;;;;3.83;2.80;;;18.10;99.90;;;19.02;80.64;97797.59;10391337;28;20633;-68
2023/07/04 02:40:05;;;;;;;3.90;2.88;;;18.10;99.90;;;19.09;80.62;97793.47;10390516;28;20244;-69
2023/07/04 02:45:11;;;;;;;3.55;2.80;;;18.20;99.90;;;19.02;80.95;97792.44;10397588;28;20610;-68
2023/07/04 02:50:14;;;;;;;3.20;2.90;;;18.20;99.90;;;19.16;80.23;97792.75;10396400;28;20312;-67
2023/07/04 02:55:17;;;;;;;3.97;2.90;;;18.20;99.90;;;19.11;80.21;97786.56;10392976;28;20225;-68
2023/07/04 03:00:22;;;;;;;6.88;2.72;;;18.20;99.90;;;19.12;80.77;97790.94;10402858;28;20587;-68
2023/07/04 03:05:27;;;;;;;4.35;3.50;;;18.20;99.90;;;19.21;80.28;97793.72;10401794;28;20701;-68
2023/07/04 03:10:31;;;;;;;4.65;3.20;;;18.20;99.90;;;19.17;80.08;97799.66;10403593;28;20225;-68
2023/07/04 03:15:35;;;;;;;3.30;2.97;;;18.20;99.90;;;19.11;80.60;97802.13;10404328;28;20705;-68
2023/07/04 03:20:39;;;;;;;3.80;2.88;;;18.20;99.90;;;19.05;80.51;97805.44;10403079;28;20228;-67
2023/07/04 03:25:43;;;;;;;4.68;3.55;;;18.20;99.90;;;19.03;80.50;97806.25;10406511;28;20225;-68
2023/07/04 03:30:47;;;;;;;4.10;2.88;;;18.20;99.90;;;19.08;79.96;97807.22;10404476;28;20217;-67
2023/07/04 03:35:51;;;;;;;3.35;2.70;;;18.10;99.90;;;19.12;79.39;97811.66;10405712;28;20233;-68
2023/07/04 03:41:02;;;;;;;2.88;2.63;;;18.10;99.90;;;19.10;79.66;97808.16;10406692;28;20769;-68
2023/07/04 03:46:06;;;;;;;3.00;2.78;;;18.10;99.90;;;19.01;80.32;97802.78;10405889;28;20241;-68
2023/07/04 03:51:09;;;;;;;3.00;2.70;;;18.10;99.90;;;18.90;80.52;97811.16;10403484;28;20233;-69
2023/07/04 03:56:13;;;;;;;3.83;2.80;;;18.00;99.90;;;18.92;80.96;97813.78;10412192;28;20233;-67
2023/07/04 04:01:17;;;;;;;2.70;2.50;;;18.00;99.90;;;18.95;80.51;97808.69;10402780;28;20252;-68
2023/07/04 04:06:21;;;;;;;2.72;2.53;;;18.00;99.90;;;18.93;80.69;97812.94;10402845;28;20268;-68
2023/07/04 04:11:24;;;;;;;2.95;2.63;;;18.00;99.90;;;18.99;81.05;97817.41;10398120;28;20304;-69
2023/07/04 04:16:29;;;;;;;3.35;2.95;;;18.10;99.90;;;19.06;80.44;97807.22;10398806;28;20229;-67
2023/07/04 04:21:32;;;;;;;4.03;3.17;;;18.20;99.90;;;19.20;79.83;97804.03;10397211;28;20308;-67
2023/07/04 04:26:38;;;;;;;3.15;2.72;;;18.30;99.90;;;19.26;79.73;97799.03;10388145;28;20229;-66
2023/07/04 04:31:42;;;;;;;3.90;2.55;;;18.30;99.90;;;19.27;79.46;97800.75;10400382;28;20225;-66
2023/07/04 04:36:46;;;;;;;3.25;2.95;;;18.30;99.90;;;19.36;79.39;97801.81;10401097;28;20747;-66
2023/07/04 04:41:52;;;;;;;3.13;2.78;;;18.40;99.90;;;19.53;77.83;97806.50;10395854;28;20308;-67
2023/07/04 04:46:58;;;;;;;2.50;2.30;;;18.50;99.90;;;19.64;77.51;97807.59;10394934;28;20226;-66
2023/07/04 04:52:01;;;;;;;3.00;2.67;;;18.70;99.90;;;19.74;77.25;97812.16;10394466;28;20236;-68
2023/07/04 04:57:05;;;;;;;3.42;2.40;;;18.80;99.90;;;19.98;76.34;97814.34;10394969;28;20234;-68
2023/07/04 05:02:10;;;;;;;2.67;2.10;;;19.10;99.90;;;20.96;72.99;97817.78;10394783;28;20236;-68
2023/07/04 05:07:13;;;;;;;3.38;2.60;;;20.30;99.90;;;21.93;67.13;97819.13;10397224;28;20241;-68
2023/07/04 05:12:16;;;;;;;2.35;2.15;;;20.70;99.90;;;22.09;65.65;97826.25;10394736;28;20226;-68
2023/07/04 05:17:21;;;;;;;2.33;2.17;;;20.70;99.90;;;22.46;63.82;97827.53;10401519;28;20229;-68
2023/07/04 05:22:25;;;;;;;2.60;2.17;;;21.00;99.90;;;22.86;62.81;97837.41;10395817;28;20385;-68
2023/07/04 05:27:28;;;;;;;2.25;2.05;;;21.50;99.90;;;23.31;60.50;97842.13;10396940;28;20261;-68
2023/07/04 05:32:32;;;;;;;2.20;2.00;;;22.10;99.90;;;24.41;56.03;97846.06;10400428;28;20599;-68
2023/07/04 05:37:35;;;;;;;2.22;2.03;;;23.10;99.90;;;25.05;53.42;97840.06;10401054;28;20340;-68
2023/07/04 05:42:38;;;;;;;2.88;2.10;;;23.60;99.90;;;25.28;52.34;97845.28;10400232;28;20237;-68
2023/07/04 05:47:43;;;;;;;2.60;2.17;;;23.70;99.50;;;25.76;51.50;97840.81;10395224;28;20718;-69
2023/07/04 05:52:46;;;;;;;2.30;2.10;;;24.10;98.60;;;26.32;49.91;97837.03;10399736;28;20739;-69
2023/07/04 05:57:49;;;;;;;2.35;1.85;;;24.50;97.70;;;26.87;48.11;97835.81;10399864;28;20225;-68
2023/07/04 06:02:54;;;;;;;2.10;2.00;;;25.00;96.10;;;26.68;48.05;97838.59;10400350;28;20229;-69
2023/07/04 06:07:57;;;;;;;2.88;2.40;;;24.60;96.70;;;26.41;48.52;97846.59;10398617;28;20612;-69
2023/07/04 06:13:00;;;;;;;2.25;2.05;;;24.20;97.00;;;25.88;50.13;97853.00;10400289;28;20236;-69
2023/07/04 06:18:05;;;;;;;3.17;2.33;;;23.80;97.70;;;25.15;51.51;97853.16;10401375;28;20234;-69
2023/07/04 06:23:09;;;;;;;3.05;2.50;;;23.20;98.40;;;24.77;52.59;97849.66;10400580;28;20237;-68
2023/07/04 06:28:12;;;;;;;3.53;2.65;;;22.90;98.90;;;24.22;52.44;97853.88;10402783;28;20240;-68
2023/07/04 06:33:17;;;;;;;4.25;2.70;;;22.50;98.70;;;24.17;52.69;97855.59;10396731;28;20618;-68
2023/07/04 06:38:22;;;;;;;4.00;2.70;;;22.60;98.90;;;24.04;53.24;97852.09;10392263;28;20218;-68
2023/07/04 06:43:26;;;;;;;3.50;2.90;;;22.50;99.30;;;24.96;51.34;97861.84;10396787;28;20222;-68
2023/07/04 06:48:31;;;;;;;3.53;2.60;;;23.20;98.00;;;25.22;50.28;97863.63;10397147;28;20225;-68
2023/07/04 06:53:35;;;;;;;4.32;2.50;;;23.50;96.90;;;26.81;46.39;97862.97;10398581;28;20225;-68
2023/07/04 06:58:41;;;;;;;4.50;2.70;;;25.20;94.10;;;27.80;42.62;97868.22;10392508;28;20230;-68
2023/07/04 07:03:46;;;;;;;4.22;2.70;;;26.00;91.90;;;28.40;40.69;97864.84;10387507;28;20513;-70
2023/07/04 07:08:50;;;;;;;3.40;2.53;;;26.60;90.10;;;29.04;39.72;97865.66;10391092;28;20229;-68
2023/07/04 07:13:53;;;;;;;4.05;2.75;;;27.10;87.80;;;29.36;37.37;97866.00;10399481;28;20647;-69
2023/07/04 07:18:57;;;;;;;3.05;2.72;;;27.30;84.00;;;29.55;36.72;97860.38;10389127;28;20237;-68
2023/07/04 07:24:02;;;;;;;4.45;2.72;;;27.60;81.20;;;29.35;36.19;97860.72;10397975;28;20590;-68
2023/07/04 07:29:05;;;;;;;5.43;2.78;;;27.30;81.60;;;29.41;36.34;97855.34;10391895;28;20230;-68
2023/07/04 07:34:10;;;;;;;3.72;2.75;;;27.20;81.40;;;29.78;36.29;97873.13;10396125;28;20780;-69
2023/07/04 07:39:17;;;;;;;6.32;3.15;;;27.90;80.30;;;30.04;34.63;97862.91;10394228;28;20283;-69
2023/07/04 07:44:20;;;;;;;5.35;3.83;;;28.20;77.60;;;29.13;35.82;97863.75;10402262;28;20588;-69
2023/07/04 07:49:24;;;;;;;6.13;3.80;;;26.90;79.40;;;27.76;37.40;97870.00;10405482;28;20252;-69
2023/07/04 07:54:28;;;;;;;5.20;4.10;;;25.60;81.10;;;27.00;39.31;97862.84;10409057;28;20236;-69
2023/07/04 07:59:31;;;;;;;6.40;4.30;;;24.90;83.40;;;26.65;39.41;97858.72;10406709;28;20233;-68
2023/07/04 08:04:35;;;;;;;7.50;4.22;;;25.20;82.10;;;26.39;40.23;97849.25;10404294;28;20247;-68
2023/07/04 08:09:38;;;;;;;4.47;3.67;;;24.80;83.20;;;27.70;37.95;97841.16;10407201;28;20225;-69
2023/07/04 08:14:42;;;;;;;7.00;4.43;;;26.20;79.90;;;29.44;34.30;97844.75;10398460;28;20304;-69
2023/07/04 08:19:46;;;;;;;7.45;4.40;;;27.50;76.70;;;28.44;35.62;97843.75;10399930;22;20604;-65
2023/07/04 08:24:49;;;;;;;7.18;4.88;;;26.30;77.90;;;27.30;37.77;97848.56;10390451;28;20713;-65
2023/07/04 08:29:52;;;;;;;5.60;4.63;;;25.60;79.60;;;26.68;39.48;97840.34;10381728;28;20236;-65
2023/07/04 08:34:57;;;;;;;6.93;4.40;;;24.90;82.30;;;27.28;38.86;97853.84;10388497;28;20229;-65
2023/07/04 08:40:00;;;;;;;6.50;4.88;;;25.80;81.00;;;28.33;36.44;97848.28;10379324;28;20612;-65
2023/07/04 08:45:10;;;;;;;7.80;4.97;;;27.40;75.80;;;28.40;36.18;97846.44;10391269;28;20231;-65
2023/07/04 08:50:23;;;;;;;7.05;6.30;;;27.10;76.70;;;28.17;34.16;97842.34;10382301;28;20240;-65
2023/07/04 08:55:27;;;;;;;7.40;6.55;;;26.90;73.10;;;28.38;33.77;97835.06;10379278;28;20779;-65
2023/07/04 09:00:33;;;;;;;8.80;6.07;;;27.70;70.70;;;28.93;34.03;97844.75;10376863;28;20217;-65
2023/07/04 09:05:50;;;;;;;8.57;6.47;;;28.30;70.00;;;29.19;32.28;97842.59;10414538;28;20233;-64
2023/07/04 09:10:59;;;;;;;9.40;6.70;;;28.70;67.00;;;29.22;31.48;97851.31;10418376;28;20778;-65
2023/07/04 09:16:07;;;;;;;8.35;6.65;;;28.50;66.50;;;28.64;32.39;97859.22;10429661;28;20715;-66
2023/07/04 09:21:15;;;;;;;8.93;7.25;;;27.50;68.00;;;28.78;31.93;97847.63;10425292;28;20657;-65
2023/07/04 09:26:21;;;;;;;10.90;7.60;;;27.90;67.20;;;28.35;32.68;97846.47;10419971;28;20225;-65
2023/07/04 09:31:29;;;;;;;8.18;6.43;;;27.70;66.90;;;28.15;33.62;97845.88;10425689;28;20589;-64
2023/07/04 09:36:39;;;;;;;9.40;7.47;;;27.20;69.00;;;27.97;33.28;97854.88;10417196;28;20234;-65
2023/07/04 09:41:42;;;;;;;9.98;6.45;;;27.20;68.10;;;28.11;34.62;97858.22;10424400;28;20226;-65
2023/07/04 09:47:02;;;;;;;8.00;6.65;;;27.20;70.20;;;28.35;33.69;97850.88;10413010;28;20730;-65
2023/07/04 09:52:20;;;;;;;8.98;6.68;;;27.70;69.00;;;28.35;34.30;97848.25;10414501;28;20229;-66
2023/07/04 09:57:28;;;;;;;7.68;6.22;;;27.70;68.90;;;28.41;33.93;97840.25;10431173;28;20232;-65
2023/07/04 10:02:35;;;;;;;9.85;7.20;;;27.70;68.70;;;27.88;34.02;97840.09;10403650;28;20864;-65
2023/07/04 10:07:40;;;;;;;8.32;6.75;;;26.90;69.50;;;27.64;34.64;97841.22;10408226;28;20712;-66
2023/07/04 10:12:46;;;;;;;7.35;6.25;;;26.50;71.00;;;27.56;34.53;97837.84;10407225;28;20213;-65
2023/07/04 10:17:49;;;;;;;7.35;6.60;;;26.50;70.20;;;27.63;34.29;97831.59;10409339;28;20730;-65
2023/07/04 10:22:54;;;;;;;9.40;6.07;;;26.70;70.00;;;27.69;35.14;97823.66;10409476;28;20799;-65
2023/07/04 10:28:11;;;;;;;6.95;6.25;;;26.80;70.40;;;28.06;33.43;97823.22;10404672;28;20241;-65
2023/07/04 10:33:19;;;;;;;9.23;6.70;;;27.30;68.00;;;27.95;33.35;97819.88;10413391;28;20771;-65
2023/07/04 10:38:38;;;;;;;7.50;6.40;;;26.90;67.90;;;27.87;33.53;97819.09;10418659;28;20746;-66
2023/07/04 10:43:45;;;;;;;8.07;5.93;;;26.90;68.10;;;27.58;35.14;97830.78;10422060;28;20229;-65
2023/07/04 10:48:58;;;;;;;7.60;5.88;;;26.50;70.90;;;27.22;36.47;97827.69;10413731;28;20225;-65
2023/07/04 10:54:03;;;;;;;8.13;6.05;;;25.90;73.60;;;26.85;37.53;97825.34;10425732;28;20734;-65
2023/07/04 10:59:13;;;;;;;7.15;5.55;;;25.70;74.50;;;26.51;38.29;97816.88;10423871;28;20617;-65
2023/07/04 11:04:22;;;;;;;6.90;5.88;;;25.20;76.10;;;26.21;38.51;97820.50;10405405;28;20232;-65
2023/07/04 11:09:28;;;;;;;6.60;5.90;;;25.00;76.10;;;26.20;38.21;97805.69;10421512;28;20697;-65
2023/07/04 11:14:36;;;;;;;7.78;6.10;;;24.90;76.10;;;26.15;38.73;97808.31;10420428;28;20224;-65
2023/07/04 11:19:56;;;;;;;6.50;5.90;;;24.90;76.80;;;26.32;38.52;97805.59;10414514;28;20229;-65
2023/07/04 11:25:31;;;;;;;6.95;5.55;;;25.10;76.30;;;26.61;38.21;97807.19;10426828;28;20597;-65
2023/07/04 11:30:40;;;;;;;7.28;6.38;;;25.40;75.80;;;26.62;38.07;97803.69;10419450;28;20240;-66
2023/07/04 11:35:44;;;;;;;6.90;6.15;;;25.50;75.30;;;26.76;36.90;97804.44;10421541;28;20221;-65
2023/07/04 11:40:54;;;;;;;8.43;5.93;;;25.60;74.10;;;26.68;38.47;97803.63;10430193;28;20237;-65
2023/07/04 11:45:58;;;;;;;7.57;6.80;;;25.50;76.00;;;26.86;37.77;97803.47;10417276;28;20707;-66
2023/07/04 11:51:05;;;;;;;6.97;5.93;;;25.60;75.20;;;26.87;37.97;97789.50;10420359;28;20221;-65
2023/07/04 11:56:18;;;;;;;8.43;5.70;;;25.80;75.40;;;27.10;37.46;97786.66;10410850;28;20244;-66
2023/07/04 12:01:22;;;;;;;6.82;5.68;;;26.00;74.50;;;27.05;37.09;97784.94;10422518;28;20321;-65
2023/07/04 12:07:05;;;;;;;6.68;5.72;;;26.00;73.70;;;27.34;37.16;97776.78;10428887;28;20572;-66
2023/07/04 12:12:20;;;;;;;5.55;4.90;;;26.20;74.90;;;27.00;37.30;97778.88;10403948;28;20839;-66
2023/07/04 12:17:24;;;;;;;6.30;4.97;;;25.90;74.60;;;26.73;37.78;97768.63;10412235;28;20236;-66
2023/07/04 12:22:27;;;;;;;6.00;4.75;;;25.50;75.20;;;26.78;38.01;97763.31;10418883;28;20317;-66
2023/07/04 12:27:32;;;;;;;6.90;5.05;;;25.60;75.30;;;26.90;38.10;97757.97;10419157;28;20229;-66
2023/07/04 12:32:38;;;;;;;5.45;4.93;;;26.00;74.90;;;26.78;37.74;97747.56;10416590;28;20226;-66
2023/07/04 12:37:48;;;;;;;5.47;4.57;;;25.90;74.60;;;27.10;37.02;97743.75;10425595;28;20817;-66
2023/07/04 12:42:53;;;;;;;5.35;4.57;;;26.30;73.00;;;27.05;36.80;97737.72;10419161;28;20376;-66
2023/07/04 12:48:01;;;;;;;5.30;4.75;;;26.30;72.50;;;27.06;36.86;97742.94;10421700;28;20233;-66
2023/07/04 12:53:11;;;;;;;5.57;4.40;;;26.20;72.60;;;26.93;36.04;97730.84;10422903;28;20617;-66
2023/07/04 12:58:16;;;;;;;6.38;4.70;;;26.10;70.90;;;26.89;36.75;97729.97;10412738;28;20217;-66
2023/07/04 13:03:19;;;;;;;5.38;4.88;;;26.20;72.00;;;27.04;36.33;97717.59;10417955;28;20327;-66
2023/07/04 13:08:25;;;;;;;4.60;4.20;;;26.30;71.40;;;27.16;34.94;97702.63;10418914;28;20290;-66
2023/07/04 13:13:36;;;;;;;5.38;4.63;;;26.40;69.40;;;27.21;34.27;97694.69;10414392;28;20614;-66
2023/07/04 13:18:43;;;;;;;7.03;4.97;;;26.60;68.00;;;27.39;34.57;97704.97;10423708;28;20678;-66
2023/07/04 13:23:47;;;;;;;5.68;4.57;;;26.70;68.60;;;27.49;35.59;97707.47;10410833;28;20221;-67
2023/07/04 13:29:18;;;;;;;5.90;5.15;;;26.70;70.60;;;27.13;36.00;97699.16;10415365;28;20636;-67
2023/07/04 13:34:31;;;;;;;7.05;5.30;;;26.30;70.90;;;27.23;36.21;97690.28;10420946;28;20229;-66
2023/07/04 13:39:34;;;;;;;6.85;5.10;;;26.40;71.10;;;27.50;35.69;97691.72;10413843;28;20236;-66
2023/07/04 13:44:57;;;;;;;5.80;5.20;;;26.70;70.50;;;27.42;35.29;97677.81;10418292;28;20229;-66
2023/07/04 13:50:06;;;;;;;6.05;5.40;;;26.70;69.70;;;27.30;35.43;97689.34;10420336;28;20236;-67
2023/07/04 13:55:10;;;;;;;5.22;4.72;;;26.40;70.90;;;26.98;36.35;97692.28;10412562;28;20286;-65
2023/07/04 14:00:17;;;;;;;6.38;5.07;;;26.20;71.30;;;26.79;36.44;97678.50;10416469;28;20605;-66
2023/07/04 14:05:30;;;;;;;5.72;5.22;;;25.80;71.70;;;26.68;36.39;97677.75;10415476;28;20240;-65
2023/07/04 14:10:37;;;;;;;7.25;5.25;;;25.80;71.90;;;26.62;37.29;97667.34;10409496;28;20713;-66
2023/07/04 14:21:15;;;;;;;6.22;4.88;;;26.00;71.40;;;27.43;34.98;97663.78;10332213;28;20235;-67
2023/07/04 14:26:21;;;;;;;5.13;4.63;;;26.60;69.50;;;27.40;34.01;97658.56;10336443;28;20230;-67
2023/07/04 14:31:25;;;;;;;6.88;5.05;;;26.50;67.80;;;27.48;34.32;97651.47;10372777;28;20233;-67
2023/07/04 14:36:29;;;;;;;5.93;5.32;;;26.60;67.90;;;27.61;34.54;97645.16;10372203;28;20789;-67
2023/07/04 14:41:34;;;;;;;6.45;5.32;;;26.80;68.70;;;27.45;34.43;97645.41;10376957;28;20244;-67
2023/07/04 14:46:40;;;;;;;6.35;4.70;;;26.70;67.90;;;27.24;34.35;97638.66;10365635;28;20230;-67
2023/07/04 14:51:44;;;;;;;5.25;4.65;;;26.40;68.00;;;27.28;34.70;97637.75;10350261;28;20245;-67
2023/07/04 14:56:47;;;;;;;5.43;4.60;;;26.50;68.60;;;27.49;33.55;97639.19;10353375;28;20578;-67
2023/07/04 15:01:53;;;;;;;4.72;4.30;;;26.70;66.70;;;27.26;34.84;97614.13;10351488;28;20233;-67
2023/07/04 15:06:59;;;;;;;6.13;5.10;;;26.40;68.90;;;27.04;34.40;97623.13;10351845;28;20241;-68
2023/07/04 15:12:03;;;;;;;5.85;4.90;;;26.30;67.80;;;26.98;34.78;97625.81;10353372;28;20230;-69
2023/07/04 15:17:07;;;;;;;6.43;5.38;;;26.20;68.70;;;26.99;34.72;97624.97;10344341;28;20301;-68
2023/07/04 15:22:11;;;;;;;5.95;4.72;;;26.20;68.10;;;27.04;34.82;97620.50;10348868;28;20559;-68
2023/07/04 15:27:15;;;;;;;8.32;5.07;;;26.20;68.10;;;27.09;34.77;97609.06;10337321;28;20234;-67
2023/07/04 15:32:18;;;;;;;6.05;4.68;;;26.20;68.50;;;26.95;34.89;97606.59;10342008;28;20256;-68
2023/07/04 15:37:25;;;;;;;5.55;5.00;;;26.00;68.50;;;27.13;34.76;97608.16;10350298;28;20447;-68
2023/07/04 15:42:28;;;;;;;6.35;5.45;;;26.20;68.60;;;26.95;34.61;97597.88;10344883;28;20234;-68
2023/07/04 15:47:31;;;;;;;5.60;5.10;;;26.00;68.30;;;26.88;34.95;97594.47;10346348;28;20226;-67
2023/07/04 15:52:36;;;;;;;5.68;4.78;;;25.90;68.80;;;26.88;34.67;97586.59;10349377;28;20238;-67
2023/07/04 15:57:40;;;;;;;5.35;4.57;;;25.90;68.30;;;26.82;34.53;97570.06;10352094;28;20238;-66
2023/07/04 16:02:43;;;;;;;5.32;4.75;;;25.90;67.90;;;26.96;34.65;97569.00;10355824;28;20215;-67
2023/07/04 16:07:47;;;;;;;7.55;4.32;;;26.00;68.50;;;26.87;35.08;97569.13;10365255;28;20334;-67
2023/07/04 16:12:50;;;;;;;4.43;4.03;;;25.90;68.50;;;26.73;34.12;97565.81;10368212;28;20228;-67
2023/07/04 16:17:54;;;;;;;5.20;4.18;;;25.90;67.30;;;26.63;34.68;97559.78;10362637;28;20246;-67
2023/07/04 16:22:58;;;;;;;5.30;4.40;;;25.80;67.80;;;26.60;34.89;97559.81;10368959;28;20273;-67
2023/07/04 16:28:02;;;;;;;5.38;4.38;;;25.70;68.70;;;26.69;34.47;97564.09;10380708;28;20233;-67
2023/07/04 16:33:05;;;;;;;5.90;4.85;;;25.80;67.50;;;26.56;34.90;97558.13;10373873;28;20711;-67
2023/07/04 16:38:10;;;;;;;5.10;4.60;;;25.60;68.60;;;26.41;35.99;97558.25;10370691;28;20720;-67
2023/07/04 16:43:13;;;;;;;5.05;3.95;;;25.50;69.60;;;26.44;35.38;97556.50;10370907;28;20225;-68
2023/07/04 16:48:16;;;;;;;5.30;4.15;;;25.50;68.80;;;26.37;35.48;97565.28;10356864;28;20620;-67
2023/07/04 16:53:20;;;;;;;5.57;4.28;;;25.50;69.30;;;26.33;35.95;97560.13;10364641;28;20229;-68
2023/07/04 16:58:24;;;;;;;4.70;4.30;;;25.40;70.00;;;26.39;36.16;97560.03;10359061;28;20575;-68
2023/07/04 17:03:28;;;;;;;5.10;4.40;;;25.50;69.30;;;26.52;35.96;97562.53;10356756;28;20226;-68
2023/07/04 17:08:32;;;;;;;5.28;4.22;;;25.60;69.70;;;26.52;34.99;97552.03;10353022;28;20288;-68
2023/07/04 17:13:39;;;;;;;4.30;3.90;;;25.60;68.70;;;26.60;36.02;97554.59;10359835;28;20221;-68
2023/07/04 17:18:44;;;;;;;3.90;3.55;;;25.60;70.30;;;26.66;35.55;97558.88;10358765;28;20280;-73
2023/07/04 17:23:48;;;;;;;5.28;4.60;;;25.70;69.30;;;26.59;35.54;97558.09;10356453;28;20739;-68
2023/07/04 17:28:52;;;;;;;5.63;4.60;;;25.60;69.20;;;26.53;35.41;97563.41;10355495;28;20713;-68
2023/07/04 17:33:56;;;;;;;5.07;4.68;;;25.60;69.10;;;26.52;35.49;97569.53;10355296;28;20218;-68
2023/07/04 17:39:02;;;;;;;5.20;4.70;;;25.50;69.30;;;26.42;36.87;97566.13;10348452;28;20576;-68
2023/07/04 17:44:05;;;;;;;5.30;4.80;;;25.40;71.00;;;26.37;36.98;97570.53;10352267;28;20225;-68
2023/07/04 17:49:08;;;;;;;5.43;4.55;;;25.40;71.70;;;26.29;36.54;97564.50;10355467;28;20340;-68
2023/07/04 17:54:14;;;;;;;6.72;4.25;;;25.30;70.10;;;26.31;36.24;97574.97;10356593;28;20230;-68
2023/07/04 17:59:17;;;;;;;4.80;4.22;;;25.30;69.80;;;26.25;36.41;97581.16;10353247;28;20600;-68
2023/07/04 18:04:21;;;;;;;7.25;4.63;;;25.20;70.30;;;26.12;36.49;97584.75;10350069;28;20237;-68
2023/07/04 18:09:26;;;;;;;4.45;3.92;;;25.10;70.40;;;25.98;37.07;97585.78;10349065;28;20226;-68
2023/07/04 18:14:29;;;;;;;5.03;4.15;;;25.00;70.80;;;25.86;37.83;97580.63;10344371;28;20230;-68
2023/07/04 18:19:32;;;;;;;5.57;4.05;;;24.80;72.70;;;25.65;38.14;97580.75;10349848;28;20618;-68
2023/07/04 18:24:37;;;;;;;5.43;4.35;;;24.60;72.70;;;25.42;38.33;97576.56;10354225;28;20222;-68
2023/07/04 18:29:40;;;;;;;4.40;4.00;;;24.40;72.90;;;25.24;38.62;97582.78;10350650;28;20230;-68
2023/07/04 18:34:43;;;;;;;4.25;3.85;;;24.20;73.40;;;25.11;38.90;97581.94;10353640;28;20249;-68
2023/07/04 18:39:48;;;;;;;4.60;4.15;;;24.10;74.90;;;24.98;39.74;97580.28;10351187;28;20265;-68
2023/07/04 18:44:51;;;;;;;5.80;4.63;;;23.90;76.60;;;24.84;40.38;97589.88;10348037;28;20248;-68
2023/07/04 18:49:54;;;;;;;5.93;4.38;;;23.80;76.40;;;24.63;40.81;97594.31;10353714;28;20230;-68
2023/07/04 18:54:58;;;;;;;5.85;4.65;;;23.60;78.40;;;24.39;41.47;97604.81;10350704;28;20227;-68
2023/07/04 19:00:02;;;;;;;4.82;4.03;;;23.30;77.70;;;24.17;42.89;97602.22;10354639;28;20237;-68
2023/07/04 19:05:06;;;;;;;4.95;4.22;;;23.10;81.10;;;23.89;43.11;97605.72;10348468;28;20229;-68
2023/07/04 19:10:11;;;;;;;5.00;4.53;;;22.80;81.10;;;23.63;43.75;97603.06;10342070;28;20287;-68
2023/07/04 19:15:14;;;;;;;5.45;4.47;;;22.60;81.40;;;23.42;45.27;97606.53;10347501;28;20225;-68
2023/07/04 19:20:18;;;;;;;5.25;4.35;;;22.30;84.60;;;23.19;46.62;97602.09;10346820;28;20225;-68
2023/07/04 19:25:22;;;;;;;5.05;4.30;;;22.10;86.70;;;23.00;47.88;97605.50;10346023;28;20499;-68
2023/07/04 19:30:25;;;;;;;4.55;4.15;;;21.90;89.20;;;22.79;48.50;97601.94;10342919;28;20230;-68
2023/07/04 19:35:28;;;;;;;6.35;4.82;;;21.60;89.60;;;22.44;48.97;97614.78;10347861;28;20226;-68
2023/07/04 19:40:33;;;;;;;4.47;4.07;;;21.40;90.40;;;22.26;49.21;97611.19;10351543;28;20745;-68
2023/07/04 19:45:36;;;;;;;4.70;4.03;;;21.20;90.30;;;22.08;49.57;97616.22;10357590;28;20222;-68
2023/07/04 19:50:39;;;;;;;4.65;4.03;;;21.00;90.40;;;21.96;50.23;97617.00;10372092;28;20253;-68
2023/07/04 19:55:43;;;;;;;5.30;4.80;;;20.90;91.30;;;21.91;50.37;97630.84;10367412;28;20222;-68
2023/07/04 20:00:49;;;;;;;5.95;4.43;;;20.90;91.30;;;21.85;51.16;97629.06;10364737;28;20231;-68
2023/07/04 20:05:52;;;;;;;5.10;4.60;;;20.80;91.90;;;21.81;52.23;97629.91;10376897;28;20281;-68
2023/07/04 20:10:57;;;;;;;5.93;4.60;;;20.70;92.40;;;21.61;52.86;97628.84;10375013;28;20230;-67
2023/07/04 20:16:07;;;;;;;5.75;4.95;;;20.60;93.10;;;21.41;53.09;97626.91;10364790;28;20245;-68
2023/07/04 20:21:11;;;;;;;5.20;4.72;;;20.30;93.30;;;21.33;54.06;97642.38;10429761;22;20232;-65
2023/07/04 20:26:17;;;;;;;5.07;4.57;;;20.20;94.00;;;21.15;55.13;97639.59;10402979;28;20225;-65
2023/07/04 20:31:20;;;;;;;5.53;5.00;;;20.10;95.00;;;20.99;55.69;97638.53;10359147;28;20281;-64
2023/07/04 20:36:23;;;;;;;5.60;4.90;;;19.90;95.60;;;20.99;56.08;97630.72;10359757;28;20846;-65
2023/07/04 20:41:28;;;;;;;5.28;4.78;;;19.80;96.10;;;20.80;56.77;97626.13;10358716;28;20728;-65
2023/07/04 20:46:32;;;;;;;5.50;4.95;;;19.70;96.70;;;20.65;57.49;97626.81;10360671;28;20757;-65
2023/07/04 20:51:35;;;;;;;6.03;5.10;;;19.50;97.20;;;20.51;58.66;97629.19;10364098;28;20280;-65
2023/07/04 20:56:40;;;;;;;5.05;4.55;;;19.40;97.80;;;20.46;59.13;97628.28;10360263;28;20226;-65
2023/07/04 21:01:43;;;;;;;6.03;4.47;;;19.40;98.50;;;20.33;59.75;97626.34;10358911;28;20250;-65
2023/07/04 21:06:47;;;;;;;5.65;5.05;;;19.30;98.70;;;20.21;59.51;97620.09;10357898;28;20796;-64
2023/07/04 21:11:52;;;;;;;5.15;4.63;;;19.10;98.70;;;20.06;59.79;97631.97;10358671;28;20232;-64
2023/07/04 21:16:55;;;;;;;5.68;4.88;;;19.00;98.80;;;19.88;58.90;97630.81;10359736;28;20234;-64